Time;durP1;ratioP1;P1;durP2;ratioP2;P2;SDS_P1;SDS_P2;PMS_P1;PMS_P2;Temp;Humidity;BMP_temperature;BMP_pressure;BME280_temperature;BME280_humidity;BME280_pressure;Samples;Min_cycle;Max_cycle;Signal;HPM_P1;HPM_P2
2023/10/18 00:00:58;;;;;;;11.48;5.53;;;;;;;;;;6277004;22;20298;-79
2023/10/18 00:03:29;;;;;;;12.88;5.30;;;;;;;;;;6247254;22;20085;-79
2023/10/18 00:05:55;;;;;;;10.02;4.78;;;;;;;;;;6273014;22;20008;-79
2023/10/18 00:08:23;;;;;;;10.63;5.30;;;;;;;;;;6274027;22;20016;-79
2023/10/18 00:10:53;;;;;;;11.82;5.47;;;;;;;;;;6274277;22;20012;-79
2023/10/18 00:13:22;;;;;;;12.93;5.60;;;;;;;;;;6274875;22;20011;-80
2023/10/18 00:15:52;;;;;;;14.90;7.63;;;;;;;;;;6274683;22;20015;-79
2023/10/18 00:18:19;;;;;;;11.27;5.82;;;;;;;;;;6274334;22;20313;-79
2023/10/18 00:20:45;;;;;;;12.02;5.68;;;;;;;;;;6276140;22;20325;-79
2023/10/18 00:23:11;;;;;;;11.40;5.63;;;;;;;;;;6247459;22;20026;-79
2023/10/18 00:25:37;;;;;;;12.48;6.70;;;;;;;;;;6274065;22;20012;-79
2023/10/18 00:28:08;;;;;;;12.23;6.90;;;;;;;;;;6275064;22;20341;-79
2023/10/18 00:30:35;;;;;;;12.10;6.38;;;;;;;;;;6276603;22;20318;-79
2023/10/18 00:33:02;;;;;;;13.50;6.13;;;;;;;;;;6274357;22;20012;-79
2023/10/18 00:35:31;;;;;;;12.20;7.10;;;;;;;;;;6247069;22;20433;-79
2023/10/18 00:37:58;;;;;;;12.77;6.03;;;;;;;;;;6246390;22;20084;-79
2023/10/18 00:42:54;;;;;;;12.18;6.43;;;;;;;;;;6274109;22;20016;-79
2023/10/18 00:45:21;;;;;;;13.55;6.53;;;;;;;;;;6220699;22;20047;-79
2023/10/18 00:47:48;;;;;;;13.80;6.60;;;;;;;;;;6275112;22;20377;-79
2023/10/18 00:50:14;;;;;;;12.50;6.50;;;;;;;;;;6246484;22;20482;-79
2023/10/18 00:52:41;;;;;;;15.98;7.50;;;;;;;;;;6275019;22;20068;-79
2023/10/18 00:55:09;;;;;;;15.40;7.10;;;;;;;;;;6273958;22;20015;-79
2023/10/18 00:57:37;;;;;;;15.55;7.40;;;;;;;;;;6274204;22;20016;-79
2023/10/18 01:00:12;;;;;;;13.90;7.43;;;;;;;;;;6272826;22;20016;-79
2023/10/18 01:02:41;;;;;;;13.10;6.47;;;;;;;;;;6274971;22;20034;-79
2023/10/18 01:05:15;;;;;;;14.35;6.32;;;;;;;;;;6246743;22;20027;-79
2023/10/18 01:07:42;;;;;;;15.57;7.72;;;;;;;;;;6274553;22;20023;-79
2023/10/18 01:10:09;;;;;;;13.98;6.15;;;;;;;;;;6247290;22;20015;-79
2023/10/18 01:12:37;;;;;;;13.98;7.22;;;;;;;;;;6245892;22;20019;-79
2023/10/18 01:15:06;;;;;;;15.55;7.50;;;;;;;;;;6273225;22;20083;-79
2023/10/18 01:17:34;;;;;;;12.43;7.00;;;;;;;;;;6275100;22;20016;-79
2023/10/18 01:20:12;;;;;;;16.80;7.78;;;;;;;;;;6246654;22;20015;-79
2023/10/18 01:22:39;;;;;;;15.77;7.57;;;;;;;;;;6274661;22;20023;-79
2023/10/18 01:25:09;;;;;;;14.20;6.65;;;;;;;;;;6273988;22;20011;-79
2023/10/18 01:27:35;;;;;;;;;;;;;;;;;;6274446;22;20011;-79
2023/10/18 01:30:02;;;;;;;15.10;6.60;;;;;;;;;;6273772;22;19918;-79
2023/10/18 01:32:28;;;;;;;16.35;6.97;;;;;;;;;;6247312;22;20020;-79
2023/10/18 01:34:55;;;;;;;13.85;6.93;;;;;;;;;;6274821;22;20073;-79
2023/10/18 01:37:22;;;;;;;14.77;6.78;;;;;;;;;;6221705;22;20012;-79
2023/10/18 01:39:52;;;;;;;16.35;7.82;;;;;;;;;;6274404;22;20011;-79
2023/10/18 01:42:21;;;;;;;16.67;7.78;;;;;;;;;;6246582;22;20395;-79
2023/10/18 01:44:48;;;;;;;15.98;7.65;;;;;;;;;;6246842;22;20018;-79
2023/10/18 01:47:14;;;;;;;17.48;7.28;;;;;;;;;;6246272;22;20461;-79
2023/10/18 01:49:44;;;;;;;15.88;7.05;;;;;;;;;;6274678;22;20070;-79
2023/10/18 01:52:12;;;;;;;15.30;7.47;;;;;;;;;;6273902;22;20019;-79
2023/10/18 01:54:38;;;;;;;15.60;8.88;;;;;;;;;;6274944;22;20019;-79
2023/10/18 01:57:06;;;;;;;15.40;8.00;;;;;;;;;;6246849;22;20012;-79
2023/10/18 01:59:34;;;;;;;17.73;6.75;;;;;;;;;;6250798;22;20453;-79
2023/10/18 02:02:05;;;;;;;18.17;8.20;;;;;;;;;;6252212;22;20015;-79
2023/10/18 02:04:36;;;;;;;14.80;7.07;;;;;;;;;;6251596;22;20046;-79
2023/10/18 02:07:02;;;;;;;15.75;7.97;;;;;;;;;;6251913;22;20024;-79
2023/10/18 02:09:51;;;;;;;16.15;7.85;;;;;;;;;;6251280;22;20020;-79
2023/10/18 02:12:20;;;;;;;15.20;7.47;;;;;;;;;;6276931;22;20027;-79
2023/10/18 02:14:46;;;;;;;14.57;7.30;;;;;;;;;;6276812;22;20007;-79
2023/10/18 02:17:12;;;;;;;16.70;7.00;;;;;;;;;;6248777;22;20037;-79
2023/10/18 02:19:39;;;;;;;19.17;8.95;;;;;;;;;;6280891;22;20018;-79
2023/10/18 02:22:08;;;;;;;15.98;7.60;;;;;;;;;;6279893;22;20012;-79
2023/10/18 02:24:34;;;;;;;17.23;8.93;;;;;;;;;;6281834;22;20043;-79
2023/10/18 02:27:01;;;;;;;16.40;7.65;;;;;;;;;;6279753;22;20008;-79
2023/10/18 02:29:39;;;;;;;14.00;6.90;;;;;;;;;;6250715;22;20018;-79
2023/10/18 02:32:21;;;;;;;15.88;7.78;;;;;;;;;;6277189;22;20023;-79
2023/10/18 02:34:48;;;;;;;19.00;7.88;;;;;;;;;;6278597;22;20015;-79
2023/10/18 02:37:15;;;;;;;14.65;6.88;;;;;;;;;;6276794;22;20026;-79
2023/10/18 02:39:42;;;;;;;17.75;8.30;;;;;;;;;;6250974;22;20019;-79
2023/10/18 02:42:08;;;;;;;17.23;8.60;;;;;;;;;;6248936;22;20498;-79
2023/10/18 02:44:35;;;;;;;16.33;7.85;;;;;;;;;;6250063;22;20019;-79
2023/10/18 02:47:10;;;;;;;20.42;9.13;;;;;;;;;;6277401;22;20019;-79
2023/10/18 02:49:36;;;;;;;16.42;9.02;;;;;;;;;;6277718;22;20012;-79
2023/10/18 02:52:03;;;;;;;17.38;8.38;;;;;;;;;;6275952;22;20023;-79
2023/10/18 02:54:32;;;;;;;18.23;9.18;;;;;;;;;;6274573;22;20019;-79
2023/10/18 02:57:01;;;;;;;17.50;8.15;;;;;;;;;;6276302;22;20012;-79
2023/10/18 02:59:27;;;;;;;17.50;7.63;;;;;;;;;;6276181;22;20012;-79
2023/10/18 03:01:57;;;;;;;19.05;8.95;;;;;;;;;;6276568;22;20011;-79
2023/10/18 03:04:28;;;;;;;16.55;7.70;;;;;;;;;;6275355;22;20087;-79
2023/10/18 03:06:54;;;;;;;14.40;7.65;;;;;;;;;;6275310;22;20027;-79
2023/10/18 03:09:27;;;;;;;12.65;6.95;;;;;;;;;;6276068;22;20023;-79
2023/10/18 03:11:54;;;;;;;15.30;7.43;;;;;;;;;;6275648;22;20452;-79
2023/10/18 03:14:27;;;;;;;12.55;6.72;;;;;;;;;;6275427;22;20011;-79
2023/10/18 03:16:55;;;;;;;13.82;6.20;;;;;;;;;;6247321;22;20023;-79
2023/10/18 03:19:22;;;;;;;16.45;7.70;;;;;;;;;;6274831;22;20488;-79
2023/10/18 03:21:50;;;;;;;13.82;7.45;;;;;;;;;;6275909;22;20065;-79
2023/10/18 03:24:19;;;;;;;15.43;7.38;;;;;;;;;;6247499;22;20447;-79
2023/10/18 03:26:46;;;;;;;12.30;6.90;;;;;;;;;;6274708;22;20383;-79
2023/10/18 03:29:12;;;;;;;14.13;7.45;;;;;;;;;;6246605;22;20008;-79
2023/10/18 03:31:41;;;;;;;14.18;6.88;;;;;;;;;;6275871;22;20022;-79
2023/10/18 03:34:13;;;;;;;14.82;7.50;;;;;;;;;;6247061;22;20012;-79
2023/10/18 03:37:18;;;;;;;15.40;8.05;;;;;;;;;;6247620;22;20022;-79
2023/10/18 03:39:31;;;;;;;14.82;7.85;;;;;;;;;;6269676;22;20058;-79
2023/10/18 03:42:02;;;;;;;15.52;7.55;;;;;;;;;;6275024;22;20314;-79
2023/10/18 03:44:30;;;;;;;15.55;7.45;;;;;;;;;;6276362;22;20018;-79
2023/10/18 03:49:33;;;;;;;13.60;7.32;;;;;;;;;;6248575;22;20083;-79
2023/10/18 03:52:16;;;;;;;15.05;7.60;;;;;;;;;;6247274;22;20042;-79
2023/10/18 03:54:46;;;;;;;15.10;7.05;;;;;;;;;;6248741;22;20073;-79
2023/10/18 03:57:19;;;;;;;18.48;7.47;;;;;;;;;;6274753;22;20016;-79
2023/10/18 03:59:49;;;;;;;15.25;7.45;;;;;;;;;;6275626;22;20440;-79
2023/10/18 04:02:48;;;;;;;12.45;7.22;;;;;;;;;;6274966;22;20016;-79
2023/10/18 04:05:16;;;;;;;14.00;6.57;;;;;;;;;;6269905;22;20019;-79
2023/10/18 04:07:42;;;;;;;14.63;7.00;;;;;;;;;;6275708;22;20052;-79
2023/10/18 04:10:13;;;;;;;16.77;7.25;;;;;;;;;;6249178;22;20008;-79
2023/10/18 04:12:43;;;;;;;12.77;6.80;;;;;;;;;;6247889;22;20015;-79
2023/10/18 04:15:21;;;;;;;14.80;7.97;;;;;;;;;;6275739;22;20447;-79
2023/10/18 04:17:50;;;;;;;14.80;6.82;;;;;;;;;;6223535;22;20020;-79
2023/10/18 04:20:31;;;;;;;12.45;6.60;;;;;;;;;;6247651;22;20016;-79
2023/10/18 04:22:57;;;;;;;17.52;8.20;;;;;;;;;;6247852;22;20023;-79
2023/10/18 04:25:27;;;;;;;16.65;7.80;;;;;;;;;;6275536;22;20190;-79
2023/10/18 04:27:59;;;;;;;14.77;8.05;;;;;;;;;;6245152;22;20341;-79
2023/10/18 04:30:25;;;;;;;14.45;6.93;;;;;;;;;;6247728;22;20074;-79
2023/10/18 04:32:59;;;;;;;15.90;8.15;;;;;;;;;;6245832;22;20105;-79
2023/10/18 04:35:26;;;;;;;15.13;8.13;;;;;;;;;;6275109;22;20019;-79
2023/10/18 04:37:55;;;;;;;14.90;7.72;;;;;;;;;;6275949;22;20341;-79
2023/10/18 04:40:22;;;;;;;14.82;8.23;;;;;;;;;;6275053;22;20012;-79
2023/10/18 04:42:54;;;;;;;17.08;7.43;;;;;;;;;;6274057;22;20031;-79
2023/10/18 04:45:23;;;;;;;16.20;7.53;;;;;;;;;;6222816;22;20015;-79
2023/10/18 04:47:49;;;;;;;11.90;6.65;;;;;;;;;;6274730;22;20012;-79
2023/10/18 04:50:22;;;;;;;15.35;7.72;;;;;;;;;;6273796;22;20016;-79
2023/10/18 04:52:58;;;;;;;15.75;8.15;;;;;;;;;;6246766;22;20016;-79
2023/10/18 04:55:25;;;;;;;17.63;8.45;;;;;;;;;;6274056;22;20083;-79
2023/10/18 04:57:53;;;;;;;12.23;6.63;;;;;;;;;;6273845;22;20087;-78
2023/10/18 05:00:34;;;;;;;13.02;7.40;;;;;;;;;;6246482;22;20016;-79
2023/10/18 05:03:06;;;;;;;16.52;8.00;;;;;;;;;;6246185;22;20076;-79
2023/10/18 05:05:37;;;;;;;17.80;8.57;;;;;;;;;;6245257;22;20045;-78
2023/10/18 05:08:04;;;;;;;13.85;7.72;;;;;;;;;;6273353;22;20110;-78
2023/10/18 05:10:30;;;;;;;15.18;8.10;;;;;;;;;;6273602;22;20069;-79
2023/10/18 05:15:29;;;;;;;16.23;7.93;;;;;;;;;;6273857;22;20016;-79
2023/10/18 05:18:04;;;;;;;14.93;8.07;;;;;;;;;;6272789;22;20337;-79
2023/10/18 05:20:47;;;;;;;14.70;7.97;;;;;;;;;;6274166;22;20026;-79
2023/10/18 05:23:25;;;;;;;13.70;7.55;;;;;;;;;;6247650;22;20076;-79
2023/10/18 05:26:01;;;;;;;14.55;8.30;;;;;;;;;;6251799;22;20015;-79
2023/10/18 05:28:42;;;;;;;12.77;6.97;;;;;;;;;;6252466;22;20012;-79
2023/10/18 05:31:43;;;;;;;16.40;7.97;;;;;;;;;;6248875;22;20018;-79
2023/10/18 05:34:47;;;;;;;14.27;7.38;;;;;;;;;;6274739;22;20349;-80
2023/10/18 05:41:51;;;;;;;13.30;7.13;;;;;;;;;;6275391;22;20015;-77
2023/10/18 05:44:17;;;;;;;13.75;7.38;;;;;;;;;;6246657;22;20015;-77
2023/10/18 05:46:46;;;;;;;14.43;7.35;;;;;;;;;;6275165;22;20008;-77
2023/10/18 05:49:15;;;;;;;14.57;7.35;;;;;;;;;;6274478;22;20012;-77
2023/10/18 05:54:29;;;;;;;13.90;7.50;;;;;;;;;;6275266;22;20011;-77
2023/10/18 05:56:56;;;;;;;13.77;7.70;;;;;;;;;;6274943;22;20066;-77
2023/10/18 06:01:48;;;;;;;16.65;9.00;;;;;;;;;;6274678;22;20016;-77
2023/10/18 06:04:23;;;;;;;16.00;8.75;;;;;;;;;;6247260;22;20322;-77
2023/10/18 06:06:49;;;;;;;14.02;7.80;;;;;;;;;;6274476;22;20026;-77
2023/10/18 06:09:26;;;;;;;15.38;7.70;;;;;;;;;;6274698;22;20020;-76
2023/10/18 06:11:53;;;;;;;15.10;8.07;;;;;;;;;;6275239;22;20034;-77
2023/10/18 06:14:19;;;;;;;17.02;8.38;;;;;;;;;;6274725;22;20016;-77
2023/10/18 06:16:51;;;;;;;12.88;7.22;;;;;;;;;;6275263;22;20015;-77
2023/10/18 06:19:22;;;;;;;15.18;8.32;;;;;;;;;;6247075;22;20016;-77
2023/10/18 06:21:57;;;;;;;13.80;7.30;;;;;;;;;;6274611;22;20370;-77
2023/10/18 06:24:25;;;;;;;15.05;7.80;;;;;;;;;;6248050;22;20020;-77
2023/10/18 06:26:54;;;;;;;13.55;6.72;;;;;;;;;;6247274;22;20356;-77
2023/10/18 06:29:23;;;;;;;14.05;8.23;;;;;;;;;;6247433;22;20011;-77
2023/10/18 06:31:49;;;;;;;11.95;7.40;;;;;;;;;;6247379;22;20345;-77
2023/10/18 06:34:18;;;;;;;13.55;7.85;;;;;;;;;;6274017;22;20500;-77
2023/10/18 06:36:49;;;;;;;16.40;8.02;;;;;;;;;;6246485;22;20015;-77
2023/10/18 06:39:25;;;;;;;13.90;8.10;;;;;;;;;;6274107;22;20023;-77
2023/10/18 06:41:57;;;;;;;12.85;7.25;;;;;;;;;;6247300;22;20441;-77
2023/10/18 06:44:29;;;;;;;14.32;8.02;;;;;;;;;;6274506;22;20318;-77
2023/10/18 06:46:57;;;;;;;12.73;7.70;;;;;;;;;;6274213;22;20007;-77
2023/10/18 06:49:25;;;;;;;14.05;8.45;;;;;;;;;;6274772;22;20011;-77
2023/10/18 06:51:52;;;;;;;14.43;7.65;;;;;;;;;;6246229;22;20011;-77
2023/10/18 06:54:54;;;;;;;13.27;7.72;;;;;;;;;;6246817;22;20326;-77
2023/10/18 06:57:16;;;;;;;13.45;8.05;;;;;;;;;;6269284;22;20023;-77
2023/10/18 06:59:44;;;;;;;13.07;7.70;;;;;;;;;;6247492;22;20459;-77
2023/10/18 07:02:12;;;;;;;13.85;7.35;;;;;;;;;;6246352;22;20080;-77
2023/10/18 07:04:38;;;;;;;12.07;7.38;;;;;;;;;;6274583;22;20430;-77
2023/10/18 07:07:13;;;;;;;13.98;7.53;;;;;;;;;;6272099;22;20019;-77
2023/10/18 07:09:43;;;;;;;14.70;7.43;;;;;;;;;;6274250;22;20024;-77
2023/10/18 07:12:13;;;;;;;13.70;7.72;;;;;;;;;;6274005;22;20108;-77
2023/10/18 07:14:39;;;;;;;15.13;7.78;;;;;;;;;;6274647;22;20016;-77
2023/10/18 07:17:09;;;;;;;11.50;6.65;;;;;;;;;;6246363;22;20016;-77
2023/10/18 07:19:47;;;;;;;13.52;6.75;;;;;;;;;;6246972;22;20020;-77
2023/10/18 07:22:18;;;;;;;13.82;8.15;;;;;;;;;;6245636;22;20269;-77
2023/10/18 07:24:47;;;;;;;13.52;7.57;;;;;;;;;;6247137;22;20019;-77
2023/10/18 07:27:15;;;;;;;12.07;7.03;;;;;;;;;;6273701;22;20013;-77
2023/10/18 07:29:46;;;;;;;12.80;8.00;;;;;;;;;;6247117;22;20023;-77
2023/10/18 07:32:12;;;;;;;13.38;7.13;;;;;;;;;;6273170;22;20015;-77
2023/10/18 07:34:39;;;;;;;12.07;6.80;;;;;;;;;;6247264;22;20415;-77
2023/10/18 07:37:17;;;;;;;14.07;7.43;;;;;;;;;;6271135;22;20022;-77
2023/10/18 07:39:56;;;;;;;12.15;6.82;;;;;;;;;;6246782;22;20376;-77
2023/10/18 07:42:26;;;;;;;12.88;7.97;;;;;;;;;;6246654;22;20406;-77
2023/10/18 07:44:55;;;;;;;13.85;6.85;;;;;;;;;;6246861;22;20033;-77
2023/10/18 07:47:25;;;;;;;13.52;6.45;;;;;;;;;;6246534;22;20019;-77
2023/10/18 07:49:55;;;;;;;13.93;7.28;;;;;;;;;;6246777;22;20039;-77
2023/10/18 07:52:21;;;;;;;13.00;7.85;;;;;;;;;;6273636;22;20019;-77
2023/10/18 07:54:48;;;;;;;11.85;7.25;;;;;;;;;;6273959;22;20310;-77
2023/10/18 07:57:17;;;;;;;11.93;7.93;;;;;;;;;;6273407;22;20012;-77
2023/10/18 07:59:47;;;;;;;13.13;7.22;;;;;;;;;;6246547;22;20011;-77
2023/10/18 08:02:14;;;;;;;11.15;6.45;;;;;;;;;;6272746;22;20008;-77
2023/10/18 08:04:42;;;;;;;14.23;7.10;;;;;;;;;;6274147;22;20348;-77
2023/10/18 08:07:15;;;;;;;13.20;7.40;;;;;;;;;;6219990;22;20341;-78
2023/10/18 08:09:41;;;;;;;11.40;7.35;;;;;;;;;;6273155;22;20019;-77
2023/10/18 08:15:13;;;;;;;11.40;6.85;;;;;;;;;;6221793;22;20437;-77
2023/10/18 08:23:34;;;;;;;12.27;7.43;;;;;;;;;;6189701;22;20017;-77
2023/10/18 08:26:04;;;;;;;9.48;5.88;;;;;;;;;;6273547;22;20047;-77
2023/10/18 08:28:38;;;;;;;12.27;6.07;;;;;;;;;;6246425;22;20023;-77
2023/10/18 08:31:33;;;;;;;10.77;6.35;;;;;;;;;;6273090;22;20043;-77
2023/10/18 08:34:15;;;;;;;9.13;5.13;;;;;;;;;;6269552;22;20086;-77
2023/10/18 08:36:43;;;;;;;11.27;6.35;;;;;;;;;;6273420;22;20008;-77
2023/10/18 08:39:10;;;;;;;9.27;5.22;;;;;;;;;;6272986;22;20019;-77
2023/10/18 08:41:37;;;;;;;10.13;5.18;;;;;;;;;;6273505;22;20011;-77
2023/10/18 08:44:16;;;;;;;12.60;7.93;;;;;;;;;;6272842;22;20016;-77
2023/10/18 08:46:43;;;;;;;11.82;5.63;;;;;;;;;;6246394;22;20042;-77
2023/10/18 08:49:13;;;;;;;9.70;5.72;;;;;;;;;;6273221;22;20023;-77
2023/10/18 08:51:44;;;;;;;11.55;6.20;;;;;;;;;;6273378;22;20019;-77
2023/10/18 08:54:18;;;;;;;8.45;4.95;;;;;;;;;;6273157;22;20061;-77
2023/10/18 08:56:47;;;;;;;9.48;5.63;;;;;;;;;;6273964;22;20065;-78
2023/10/18 08:59:18;;;;;;;8.25;5.28;;;;;;;;;;6244974;22;20034;-78
2023/10/18 09:02:08;;;;;;;9.73;6.25;;;;;;;;;;6246238;22;20019;-77
2023/10/18 09:04:31;;;;;;;8.00;5.25;;;;;;;;;;6273063;22;20019;-78
2023/10/18 09:06:59;;;;;;;7.88;4.95;;;;;;;;;;6220476;22;20023;-78
2023/10/18 09:09:26;;;;;;;9.40;6.05;;;;;;;;;;6248160;22;20023;-78
2023/10/18 09:11:52;;;;;;;8.48;5.95;;;;;;;;;;6247915;22;20012;-78
2023/10/18 09:14:18;;;;;;;9.18;5.25;;;;;;;;;;6275334;22;20015;-78
2023/10/18 09:16:47;;;;;;;7.35;4.55;;;;;;;;;;6275857;22;20019;-77
2023/10/18 09:19:13;;;;;;;9.05;5.35;;;;;;;;;;6274767;22;20008;-77
2023/10/18 09:24:15;;;;;;;6.93;5.13;;;;;;;;;;6274789;22;20356;-78
2023/10/18 09:26:43;;;;;;;8.05;4.78;;;;;;;;;;6275479;22;20018;-78
2023/10/18 09:29:10;;;;;;;6.45;4.85;;;;;;;;;;6274770;22;20020;-77
2023/10/18 09:32:01;;;;;;;10.45;5.70;;;;;;;;;;6275371;22;20018;-77
2023/10/18 09:34:33;;;;;;;7.55;4.68;;;;;;;;;;6275560;22;20007;-78
2023/10/18 09:36:59;;;;;;;7.65;5.15;;;;;;;;;;6247285;22;20390;-77
2023/10/18 09:39:38;;;;;;;6.97;5.18;;;;;;;;;;6275236;22;20091;-77
2023/10/18 09:42:05;;;;;;;8.55;5.20;;;;;;;;;;6274384;22;20012;-77
2023/10/18 09:44:31;;;;;;;8.80;6.20;;;;;;;;;;6275130;22;20363;-77
2023/10/18 09:46:59;;;;;;;7.18;4.90;;;;;;;;;;6275288;22;20066;-78
2023/10/18 09:49:28;;;;;;;6.88;5.20;;;;;;;;;;6275195;22;20377;-78
2023/10/18 09:51:54;;;;;;;7.53;4.68;;;;;;;;;;6246322;22;20015;-77
2023/10/18 09:54:21;;;;;;;7.75;4.45;;;;;;;;;;6275348;22;20007;-77
2023/10/18 09:56:48;;;;;;;9.15;4.18;;;;;;;;;;6274936;22;20039;-78
2023/10/18 09:59:25;;;;;;;7.45;4.75;;;;;;;;;;6222110;22;20510;-77
2023/10/18 10:04:17;;;;;;;6.35;4.47;;;;;;;;;;6245479;22;20030;-78
2023/10/18 10:06:47;;;;;;;7.00;4.13;;;;;;;;;;6275008;22;20035;-77
2023/10/18 10:09:13;;;;;;;7.85;5.75;;;;;;;;;;6247423;22;20072;-77
2023/10/18 10:11:44;;;;;;;8.52;5.10;;;;;;;;;;6247803;22;20016;-77
2023/10/18 10:14:11;;;;;;;8.27;5.13;;;;;;;;;;6247802;22;20014;-77
2023/10/18 10:16:37;;;;;;;7.80;4.97;;;;;;;;;;6274937;22;20061;-78
2023/10/18 10:19:09;;;;;;;9.07;4.90;;;;;;;;;;6273781;22;20008;-77
2023/10/18 10:21:36;;;;;;;8.88;5.25;;;;;;;;;;6274321;22;20049;-78
2023/10/18 10:26:48;;;;;;;6.60;4.65;;;;;;;;;;6274935;22;20467;-77
2023/10/18 10:31:55;;;;;;;9.98;4.72;;;;;;;;;;6274224;22;20016;-77
2023/10/18 10:34:32;;;;;;;7.18;4.40;;;;;;;;;;6274620;22;20015;-78
2023/10/18 10:36:58;;;;;;;;;;;;;;;;;;6274950;22;20019;-77
2023/10/18 10:39:30;;;;;;;5.72;4.45;;;;;;;;;;6274362;22;20244;-78
2023/10/18 10:42:00;;;;;;;8.18;3.60;;;;;;;;;;6274047;22;20086;-77
2023/10/18 10:44:30;;;;;;;6.13;4.47;;;;;;;;;;6274746;22;20019;-78
2023/10/18 10:47:16;;;;;;;7.15;4.18;;;;;;;;;;6274426;22;20014;-77
2023/10/18 10:49:58;;;;;;;6.68;4.97;;;;;;;;;;6274878;22;20066;-77
2023/10/18 10:52:29;;;;;;;6.18;4.28;;;;;;;;;;6274697;22;20015;-77
2023/10/18 10:55:01;;;;;;;6.20;3.80;;;;;;;;;;6273600;22;20441;-77
2023/10/18 10:57:29;;;;;;;6.70;3.85;;;;;;;;;;6274002;22;20039;-77
2023/10/18 10:59:58;;;;;;;6.43;4.60;;;;;;;;;;6274171;22;20038;-78
2023/10/18 11:02:39;;;;;;;6.90;3.95;;;;;;;;;;6274195;22;20011;-77
2023/10/18 11:05:16;;;;;;;7.82;4.18;;;;;;;;;;6274185;22;20069;-77
2023/10/18 11:07:43;;;;;;;6.03;3.97;;;;;;;;;;6274633;22;20019;-78
2023/10/18 11:10:18;;;;;;;5.03;3.70;;;;;;;;;;6274738;22;20016;-77
2023/10/18 11:12:48;;;;;;;5.70;4.53;;;;;;;;;;6274491;22;20016;-77
2023/10/18 11:15:17;;;;;;;8.18;4.40;;;;;;;;;;6247003;22;20016;-78
2023/10/18 11:17:45;;;;;;;4.50;3.42;;;;;;;;;;6275183;22;20016;-77
2023/10/18 11:20:24;;;;;;;4.90;4.03;;;;;;;;;;6246749;22;20484;-78
2023/10/18 11:22:54;;;;;;;6.68;4.00;;;;;;;;;;6246407;22;20467;-78
2023/10/18 11:25:20;;;;;;;4.80;3.35;;;;;;;;;;6247005;22;20012;-78
2023/10/18 11:27:46;;;;;;;5.53;4.10;;;;;;;;;;6246884;22;20095;-78
2023/10/18 11:30:16;;;;;;;6.15;3.55;;;;;;;;;;6273520;22;20012;-78
2023/10/18 11:32:53;;;;;;;5.10;3.45;;;;;;;;;;6274553;22;20099;-78
2023/10/18 11:35:37;;;;;;;6.03;4.18;;;;;;;;;;6274027;22;20016;-78
2023/10/18 11:38:03;;;;;;;4.70;3.47;;;;;;;;;;6273874;22;20097;-78
2023/10/18 11:40:29;;;;;;;6.97;4.43;;;;;;;;;;6274182;22;20015;-77
2023/10/18 11:43:05;;;;;;;6.65;5.00;;;;;;;;;;6245119;22;20394;-77
2023/10/18 11:45:31;;;;;;;6.43;3.80;;;;;;;;;;6274246;22;20015;-77
2023/10/18 11:47:59;;;;;;;4.82;3.17;;;;;;;;;;6246249;22;20078;-78
2023/10/18 11:50:38;;;;;;;5.65;3.90;;;;;;;;;;6246002;22;20012;-78
2023/10/18 11:53:14;;;;;;;4.57;3.30;;;;;;;;;;6246128;22;20016;-78
2023/10/18 11:56:19;;;;;;;5.47;3.63;;;;;;;;;;6274494;22;20011;-77
2023/10/18 11:59:03;;;;;;;7.05;4.55;;;;;;;;;;6150567;23;20013;-77
2023/10/18 12:01:37;;;;;;;4.47;3.63;;;;;;;;;;6150224;23;20041;-77
2023/10/18 12:04:03;;;;;;;4.85;3.20;;;;;;;;;;6230712;22;20023;-77
2023/10/18 12:06:31;;;;;;;4.45;3.30;;;;;;;;;;6273068;22;20042;-77
2023/10/18 12:09:25;;;;;;;4.70;3.53;;;;;;;;;;6273490;22;20012;-77
2023/10/18 12:11:52;;;;;;;6.68;3.97;;;;;;;;;;6273312;22;20011;-77
2023/10/18 12:14:18;;;;;;;4.95;3.67;;;;;;;;;;6273278;22;20383;-77
2023/10/18 12:16:44;;;;;;;4.90;3.50;;;;;;;;;;6274086;22;20011;-77
2023/10/18 12:19:13;;;;;;;4.68;3.42;;;;;;;;;;6273357;22;20056;-77
2023/10/18 12:21:39;;;;;;;7.32;4.10;;;;;;;;;;6273920;22;20057;-78
2023/10/18 12:24:07;;;;;;;5.55;3.40;;;;;;;;;;6273507;22;20098;-77
2023/10/18 12:26:37;;;;;;;6.35;3.78;;;;;;;;;;6246526;22;20503;-77
2023/10/18 12:29:05;;;;;;;6.95;4.75;;;;;;;;;;6220990;22;20012;-77
2023/10/18 12:31:34;;;;;;;4.50;3.38;;;;;;;;;;6246536;22;20061;-77
2023/10/18 12:34:00;;;;;;;4.55;3.30;;;;;;;;;;6245908;22;20011;-77
2023/10/18 12:36:32;;;;;;;4.90;3.55;;;;;;;;;;6273671;22;20016;-77
2023/10/18 12:38:59;;;;;;;4.85;3.30;;;;;;;;;;6273351;22;20011;-77
2023/10/18 12:41:31;;;;;;;7.15;3.63;;;;;;;;;;6220441;22;20095;-78
2023/10/18 12:44:02;;;;;;;4.82;3.42;;;;;;;;;;6245943;22;20019;-78
2023/10/18 12:46:29;;;;;;;4.05;3.00;;;;;;;;;;6273169;22;20338;-77
2023/10/18 12:48:57;;;;;;;5.97;4.28;;;;;;;;;;6245846;22;20441;-77
2023/10/18 12:51:30;;;;;;;6.00;3.55;;;;;;;;;;6246108;22;20496;-77
2023/10/18 12:53:57;;;;;;;4.65;3.72;;;;;;;;;;6245261;22;20091;-77
2023/10/18 13:01:32;;;;;;;7.22;3.60;;;;;;;;;;6245844;22;20448;-77
2023/10/18 13:03:59;;;;;;;5.30;3.78;;;;;;;;;;6245843;22;20509;-77
2023/10/18 13:06:35;;;;;;;5.43;4.18;;;;;;;;;;6273282;22;20023;-77
2023/10/18 13:14:07;;;;;;;6.88;4.70;;;;;;;;;;6273177;22;20024;-77
2023/10/18 13:16:33;;;;;;;6.07;4.07;;;;;;;;;;6273516;22;20020;-77
2023/10/18 13:18:59;;;;;;;6.40;3.97;;;;;;;;;;6272563;22;20445;-77
2023/10/18 13:21:28;;;;;;;7.50;4.30;;;;;;;;;;6273529;22;20065;-77
2023/10/18 13:26:40;;;;;;;6.50;4.10;;;;;;;;;;6273277;22;20019;-77
2023/10/18 13:29:13;;;;;;;6.82;4.63;;;;;;;;;;6272484;22;20074;-77
2023/10/18 13:31:44;;;;;;;6.28;4.13;;;;;;;;;;6246385;22;20027;-78
2023/10/18 13:34:18;;;;;;;5.28;3.90;;;;;;;;;;6272592;22;20018;-77
2023/10/18 13:36:45;;;;;;;6.07;3.90;;;;;;;;;;6246498;22;20340;-77
2023/10/18 13:39:14;;;;;;;4.90;3.95;;;;;;;;;;6245759;22;20464;-77
2023/10/18 13:41:41;;;;;;;6.32;4.15;;;;;;;;;;6273386;22;20015;-77
2023/10/18 13:44:10;;;;;;;5.55;4.03;;;;;;;;;;6272514;22;20012;-77
2023/10/18 13:46:36;;;;;;;5.38;3.95;;;;;;;;;;6273290;22;20457;-77
2023/10/18 13:49:04;;;;;;;8.25;4.80;;;;;;;;;;6272966;22;20019;-77
2023/10/18 13:51:34;;;;;;;7.15;4.00;;;;;;;;;;6273837;22;20012;-77
2023/10/18 13:54:01;;;;;;;7.25;4.60;;;;;;;;;;6274167;22;20016;-77
2023/10/18 13:56:27;;;;;;;7.15;4.05;;;;;;;;;;6275374;22;20038;-77
2023/10/18 13:58:53;;;;;;;7.63;4.07;;;;;;;;;;6247441;22;20016;-77
2023/10/18 14:01:22;;;;;;;6.65;4.50;;;;;;;;;;6249568;22;20368;-77
2023/10/18 14:03:54;;;;;;;5.55;3.90;;;;;;;;;;6247733;22;20019;-77
2023/10/18 14:06:20;;;;;;;7.63;3.88;;;;;;;;;;6248018;22;20491;-77
2023/10/18 14:08:47;;;;;;;6.45;4.03;;;;;;;;;;6275522;22;20031;-77
2023/10/18 14:11:14;;;;;;;5.50;4.15;;;;;;;;;;6274514;22;20019;-77
2023/10/18 14:13:40;;;;;;;5.20;3.42;;;;;;;;;;6248044;22;20037;-77
2023/10/18 14:16:09;;;;;;;5.00;3.47;;;;;;;;;;6247122;22;20019;-77
2023/10/18 14:18:35;;;;;;;6.40;4.03;;;;;;;;;;6274251;22;20372;-77
2023/10/18 14:21:04;;;;;;;5.88;3.35;;;;;;;;;;6247234;22;20018;-77
2023/10/18 14:23:31;;;;;;;6.72;3.97;;;;;;;;;;6274916;22;20337;-77
2023/10/18 14:26:00;;;;;;;6.45;4.13;;;;;;;;;;6274793;22;20012;-77
2023/10/18 14:28:27;;;;;;;6.10;3.58;;;;;;;;;;6247515;22;20008;-77
2023/10/18 14:30:57;;;;;;;8.52;4.32;;;;;;;;;;6247308;22;20551;-77
2023/10/18 14:33:26;;;;;;;5.20;3.80;;;;;;;;;;6273760;22;20321;-77
2023/10/18 14:35:52;;;;;;;5.47;3.65;;;;;;;;;;6274564;22;20015;-77
2023/10/18 14:38:18;;;;;;;5.70;4.03;;;;;;;;;;6274563;22;20538;-77
2023/10/18 14:40:45;;;;;;;6.63;4.15;;;;;;;;;;6248045;22;20016;-77
2023/10/18 14:43:11;;;;;;;5.57;4.00;;;;;;;;;;6274228;22;20011;-77
2023/10/18 14:45:40;;;;;;;6.05;3.85;;;;;;;;;;6274895;22;20012;-77
2023/10/18 14:48:06;;;;;;;5.40;3.95;;;;;;;;;;6273568;22;20018;-77
2023/10/18 14:50:34;;;;;;;5.40;3.83;;;;;;;;;;6274431;22;20012;-77
2023/10/18 14:53:00;;;;;;;7.47;4.15;;;;;;;;;;6274288;22;20022;-77
2023/10/18 14:55:28;;;;;;;6.95;4.15;;;;;;;;;;6247373;22;20061;-77
2023/10/18 14:57:54;;;;;;;10.18;5.35;;;;;;;;;;6274582;22;20035;-77
2023/10/18 15:00:20;;;;;;;9.38;5.15;;;;;;;;;;6274302;22;20034;-77
2023/10/18 15:02:50;;;;;;;6.60;3.53;;;;;;;;;;6247122;22;20019;-77
2023/10/18 15:05:17;;;;;;;5.35;3.42;;;;;;;;;;6273577;22;20011;-77
2023/10/18 15:07:44;;;;;;;7.88;4.50;;;;;;;;;;6274437;22;20083;-77
2023/10/18 15:10:10;;;;;;;6.60;3.92;;;;;;;;;;6246813;22;20012;-77
2023/10/18 15:12:36;;;;;;;5.03;3.80;;;;;;;;;;6274488;22;20376;-77
2023/10/18 15:15:09;;;;;;;6.38;3.75;;;;;;;;;;6273302;22;20456;-77
2023/10/18 15:17:38;;;;;;;6.13;3.83;;;;;;;;;;6246668;22;20016;-77
2023/10/18 15:20:08;;;;;;;10.30;4.63;;;;;;;;;;6246386;22;20016;-77
2023/10/18 15:22:34;;;;;;;6.32;4.35;;;;;;;;;;6273957;22;20380;-77
2023/10/18 15:25:04;;;;;;;6.88;4.15;;;;;;;;;;6245663;22;20440;-77
2023/10/18 15:27:33;;;;;;;11.95;5.22;;;;;;;;;;6274002;22;20038;-77
2023/10/18 15:30:06;;;;;;;6.75;3.83;;;;;;;;;;6245634;22;20020;-77
2023/10/18 15:32:32;;;;;;;9.10;5.47;;;;;;;;;;6273719;22;20090;-77
2023/10/18 15:35:01;;;;;;;6.95;4.50;;;;;;;;;;6273944;22;20054;-77
2023/10/18 15:37:27;;;;;;;6.38;4.00;;;;;;;;;;6246820;22;20064;-77
2023/10/18 15:39:55;;;;;;;7.57;4.32;;;;;;;;;;6274028;22;20383;-77
2023/10/18 15:42:23;;;;;;;6.93;4.07;;;;;;;;;;6274022;22;20047;-77